createdAt,value
2023-04-21T00:03:27.681Z,8.79
2023-04-21T00:08:29.397Z,8.79
2023-04-21T00:13:30.969Z,8.82
2023-04-21T00:18:33.245Z,8.85
2023-04-21T00:23:35.494Z,8.92
2023-04-21T00:28:37.029Z,8.88
2023-04-21T00:33:39.095Z,8.85
2023-04-21T00:38:40.609Z,8.86
2023-04-21T00:44:06.289Z,8.90
2023-04-21T00:49:07.922Z,8.97
2023-04-21T00:54:12.473Z,9.01
2023-04-21T00:59:14.889Z,8.97
2023-04-21T01:04:16.468Z,8.96
2023-04-21T01:09:18.551Z,8.89
2023-04-21T01:14:20.290Z,8.97
2023-04-21T01:19:21.914Z,9.03
2023-04-21T01:24:24.470Z,9.04
2023-04-21T01:29:25.969Z,9.05
2023-04-21T01:34:28.761Z,9.02
2023-04-21T01:39:30.295Z,8.99
2023-04-21T01:44:31.905Z,9.01
2023-04-21T01:49:33.531Z,8.96
2023-04-21T01:54:35.524Z,8.93
2023-04-21T01:59:37.503Z,8.96
2023-04-21T02:04:39.197Z,8.78
2023-04-21T02:09:41.228Z,8.71
2023-04-21T02:14:42.838Z,8.50
2023-04-21T02:19:44.386Z,8.24
2023-04-21T02:24:45.925Z,8.00
2023-04-21T02:29:47.517Z,7.90
2023-04-21T02:34:49.005Z,7.78
2023-04-21T02:39:50.515Z,7.60
2023-04-21T02:44:52.078Z,7.40
2023-04-21T02:49:53.590Z,7.27
2023-04-21T02:54:55.108Z,7.32
2023-04-21T02:59:56.679Z,7.34
2023-04-21T03:04:58.210Z,7.17
2023-04-21T03:09:59.839Z,7.10
2023-04-21T03:15:02.523Z,7.06
2023-04-21T03:20:04.465Z,6.97
2023-04-21T03:25:06.487Z,6.70
2023-04-21T03:30:08.522Z,6.48
2023-04-21T03:35:10.162Z,6.39
2023-04-21T03:40:11.720Z,6.38
2023-04-21T03:45:13.313Z,6.29
2023-04-21T03:50:14.889Z,6.09
2023-04-21T03:55:16.569Z,5.83
2023-04-21T04:00:18.168Z,5.79
2023-04-21T04:05:20.060Z,5.91
2023-04-21T04:10:21.628Z,5.95
2023-04-21T04:15:23.167Z,6.05
2023-04-21T04:20:24.696Z,6.12
2023-04-21T04:25:27.367Z,6.12
2023-04-21T04:30:29.241Z,6.24
2023-04-21T04:35:30.798Z,6.33
2023-04-21T04:40:32.354Z,6.36
2023-04-21T04:45:33.848Z,6.64
2023-04-21T04:50:35.391Z,6.68
2023-04-21T04:55:36.905Z,7.03
2023-04-21T05:00:38.567Z,7.20
2023-04-21T05:05:40.136Z,7.25
2023-04-21T05:10:41.685Z,7.39
2023-04-21T05:15:43.189Z,7.38
2023-04-21T05:20:44.680Z,7.35
2023-04-21T05:25:46.728Z,7.38
2023-04-21T05:30:48.349Z,7.35
2023-04-21T05:35:49.853Z,7.35
2023-04-21T05:40:57.485Z,7.33
2023-04-21T05:46:00.233Z,7.30
2023-04-21T05:51:14.314Z,7.32
2023-04-21T05:56:15.889Z,7.37
2023-04-21T06:01:17.434Z,7.47
2023-04-21T06:06:18.955Z,7.67
2023-04-21T06:11:20.450Z,8.07
2023-04-21T06:16:22.025Z,8.01
2023-04-21T06:21:23.592Z,8.23
2023-04-21T06:26:25.125Z,8.43
2023-04-21T06:31:26.671Z,8.68
2023-04-21T06:36:28.337Z,8.82
2023-04-21T06:41:29.844Z,9.12
2023-04-21T06:46:31.449Z,9.96
2023-04-21T06:51:32.976Z,10.46
2023-04-21T06:56:34.558Z,11.51
2023-04-21T07:01:36.107Z,10.09
2023-04-21T07:06:37.704Z,10.02
2023-04-21T07:11:39.236Z,11.06
2023-04-21T07:16:40.768Z,12.70
2023-04-21T07:21:42.274Z,12.49
2023-04-21T07:26:43.875Z,12.53
2023-04-21T07:31:45.417Z,13.29
2023-04-21T07:36:47.111Z,13.19
2023-04-21T07:41:48.634Z,13.16
2023-04-21T07:46:50.193Z,12.01
2023-04-21T07:51:51.814Z,11.31
2023-04-21T07:56:53.463Z,11.35
2023-04-21T08:01:54.993Z,11.84
2023-04-21T08:06:56.795Z,11.73
2023-04-21T08:11:58.415Z,11.76
2023-04-21T08:17:01.160Z,11.85
2023-04-21T08:22:02.914Z,12.63
2023-04-21T08:27:04.498Z,13.65
2023-04-21T08:32:06.126Z,14.43
2023-04-21T08:37:07.730Z,12.99
2023-04-21T08:42:09.689Z,13.17
2023-04-21T08:47:12.348Z,13.51
2023-04-21T08:52:13.914Z,15.60
2023-04-21T08:57:16.309Z,13.45
2023-04-21T09:02:22.277Z,14.59
2023-04-21T09:07:35.534Z,14.19
2023-04-21T09:12:39.408Z,15.27
2023-04-21T09:17:41.042Z,16.50
2023-04-21T09:22:42.620Z,17.03
2023-04-21T09:27:44.211Z,16.00
2023-04-21T09:32:45.859Z,18.15
2023-04-21T09:37:47.534Z,18.33
2023-04-21T09:42:49.057Z,17.52
2023-04-21T09:47:50.974Z,15.54
2023-04-21T09:52:54.664Z,16.66
2023-04-21T09:57:59.330Z,16.30
2023-04-21T10:03:05.728Z,15.64
2023-04-21T10:08:08.196Z,15.45
2023-04-21T10:13:14.775Z,16.30
2023-04-21T10:18:17.539Z,17.89
2023-04-21T10:23:32.489Z,17.03
2023-04-21T10:28:58.868Z,17.81
2023-04-21T10:34:06.491Z,18.74
2023-04-21T10:39:08.086Z,18.96
2023-04-21T10:44:09.511Z,18.39
2023-04-21T10:49:22.845Z,18.77
2023-04-21T10:54:25.699Z,19.00
2023-04-21T10:59:27.445Z,19.45
2023-04-21T11:04:30.713Z,20.38
2023-04-21T11:09:32.784Z,19.03
2023-04-21T11:14:36.531Z,18.42
2023-04-21T11:19:38.685Z,19.02
2023-04-21T11:24:44.823Z,20.92
2023-04-21T11:29:46.726Z,20.21
2023-04-21T11:34:48.346Z,20.20
2023-04-21T11:39:49.868Z,20.26
2023-04-21T11:44:54.885Z,19.19
2023-04-21T11:49:58.425Z,19.48
2023-04-21T11:55:05.690Z,19.29
2023-04-21T12:00:10.380Z,21.06
2023-04-21T12:05:13.500Z,21.39
2023-04-21T12:10:19.190Z,21.11
2023-04-21T12:15:21.973Z,22.38
2023-04-21T12:20:25.776Z,20.94
2023-04-21T12:25:27.274Z,19.74
2023-04-21T12:30:28.803Z,19.24
2023-04-21T12:35:30.319Z,19.16
2023-04-21T12:40:32.627Z,19.95
2023-04-21T12:45:34.285Z,19.17
2023-04-21T12:50:35.811Z,21.08
2023-04-21T12:55:37.434Z,21.09
2023-04-21T13:00:38.941Z,20.27
2023-04-21T13:05:40.474Z,19.39
2023-04-21T13:10:42.000Z,19.52
2023-04-21T13:15:43.600Z,20.44
2023-04-21T13:20:45.128Z,19.88
2023-04-21T13:25:46.769Z,20.30
2023-04-21T13:30:49.284Z,20.12
2023-04-21T13:35:50.854Z,20.75
2023-04-21T13:40:52.380Z,20.30
2023-04-21T13:45:53.987Z,20.70
2023-04-21T13:50:55.566Z,20.16
2023-04-21T13:55:57.359Z,20.41
2023-04-21T14:00:58.886Z,19.98
2023-04-21T14:06:00.460Z,20.41
2023-04-21T14:11:03.431Z,19.94
2023-04-21T14:16:05.330Z,20.48
2023-04-21T14:21:07.935Z,20.59
2023-04-21T14:26:09.474Z,20.65
2023-04-21T14:31:11.065Z,21.01
2023-04-21T14:36:12.674Z,21.27
2023-04-21T14:41:14.252Z,20.06
2023-04-21T14:46:15.846Z,20.47
2023-04-21T14:51:17.406Z,20.93
2023-04-21T14:56:19.022Z,20.86
2023-04-21T15:01:21.682Z,21.50
2023-04-21T15:06:25.064Z,20.59
2023-04-21T15:11:26.674Z,20.59
2023-04-21T15:16:28.299Z,20.75
2023-04-21T15:21:30.259Z,19.97
2023-04-21T15:26:31.787Z,19.61
2023-04-21T15:31:33.650Z,20.06
2023-04-21T15:36:35.313Z,21.19
2023-04-21T15:41:36.858Z,21.05
2023-04-21T15:46:38.512Z,21.21
2023-04-21T15:51:40.870Z,21.56
2023-04-21T15:56:42.507Z,21.21
2023-04-21T16:01:44.214Z,20.76
2023-04-21T16:06:45.892Z,20.88
2023-04-21T16:11:48.373Z,20.02
2023-04-21T16:16:49.955Z,21.01
2023-04-21T16:21:51.675Z,20.94
2023-04-21T16:26:53.230Z,20.15
2023-04-21T16:31:54.902Z,19.70
2023-04-21T16:36:56.468Z,20.51
2023-04-21T16:41:57.990Z,20.87
2023-04-21T16:46:59.562Z,20.41
2023-04-21T16:52:01.122Z,19.89
2023-04-21T16:57:02.864Z,20.18
2023-04-21T17:02:04.539Z,19.77
2023-04-21T17:07:06.462Z,19.74
2023-04-21T17:12:08.010Z,19.60
2023-04-21T17:17:09.720Z,19.83
2023-04-21T17:22:11.342Z,19.57
2023-04-21T17:27:12.952Z,19.15
2023-04-21T17:32:14.597Z,18.93
2023-04-21T17:37:16.314Z,18.70
2023-04-21T17:42:17.873Z,18.35
2023-04-21T17:47:19.419Z,18.38
2023-04-21T17:52:21.021Z,18.19
2023-04-21T17:57:23.358Z,18.31
2023-04-21T18:02:24.967Z,17.98
2023-04-21T18:07:26.598Z,17.79
2023-04-21T18:12:28.115Z,17.83
2023-04-21T18:17:29.711Z,17.91
2023-04-21T18:22:32.325Z,17.77
2023-04-21T18:27:33.824Z,17.65
2023-04-21T18:32:36.252Z,17.62
2023-04-21T18:37:37.773Z,17.69
2023-04-21T18:42:39.335Z,17.69
2023-04-21T18:47:41.659Z,16.98
2023-04-21T18:52:43.301Z,14.96
2023-04-21T18:57:44.835Z,14.12
2023-04-21T19:02:46.772Z,13.46
2023-04-21T19:07:48.345Z,12.50
2023-04-21T19:12:49.897Z,12.59
2023-04-21T19:17:51.707Z,12.79
2023-04-21T19:22:53.277Z,12.89
2023-04-21T19:27:54.819Z,12.92
2023-04-21T19:32:57.257Z,13.13
2023-04-21T19:37:58.899Z,13.16
2023-04-21T19:43:00.424Z,13.25
2023-04-21T19:48:01.970Z,13.23
2023-04-21T19:53:03.833Z,13.26
2023-04-21T19:58:05.364Z,13.12
2023-04-21T20:03:07.168Z,12.91
2023-04-21T20:08:08.826Z,12.80
2023-04-21T20:13:12.082Z,12.48
2023-04-21T20:18:13.949Z,12.38
2023-04-21T20:23:15.736Z,12.12
2023-04-21T20:28:17.262Z,12.14
2023-04-21T20:33:18.787Z,12.05
2023-04-21T20:38:20.295Z,12.08
2023-04-21T20:43:21.883Z,12.22
2023-04-21T20:48:23.378Z,12.23
2023-04-21T20:53:25.040Z,12.08
2023-04-21T20:58:26.596Z,11.95
2023-04-21T21:03:28.379Z,11.74
2023-04-21T21:08:30.172Z,11.53
2023-04-21T21:13:32.108Z,11.41
2023-04-21T21:18:33.647Z,11.56
2023-04-21T21:23:35.208Z,11.44
2023-04-21T21:28:36.726Z,11.02
2023-04-21T21:33:38.248Z,10.99
2023-04-21T21:38:39.891Z,10.83
2023-04-21T21:43:41.416Z,10.67
2023-04-21T21:48:42.989Z,10.85
2023-04-21T21:53:44.569Z,10.93
2023-04-21T21:58:50.151Z,10.98
2023-04-21T22:03:51.847Z,10.89
2023-04-21T22:08:53.548Z,10.75
2023-04-21T22:13:55.051Z,10.84
2023-04-21T22:18:56.662Z,10.53
2023-04-21T22:23:58.200Z,10.24
2023-04-21T22:28:59.822Z,10.28
2023-04-21T22:34:01.479Z,10.20
2023-04-21T22:39:03.053Z,9.85
2023-04-21T22:44:04.728Z,9.70
2023-04-21T22:49:06.618Z,9.67
2023-04-21T22:54:08.134Z,9.70
2023-04-21T22:59:09.755Z,10.15
2023-04-21T23:04:11.398Z,10.25
2023-04-21T23:09:13.037Z,10.29
2023-04-21T23:14:14.679Z,10.59
2023-04-21T23:19:16.175Z,10.73
2023-04-21T23:24:17.723Z,10.74
2023-04-21T23:29:19.283Z,10.82
2023-04-21T23:34:20.802Z,10.92
2023-04-21T23:39:22.317Z,10.88
2023-04-21T23:44:24.060Z,10.76
2023-04-21T23:49:25.566Z,10.55
2023-04-21T23:54:27.144Z,10.36
2023-04-21T23:59:28.667Z,10.25
